AAL2632 KORD-KBGR
Flight info
| Callsign | AAL2632 |
|---|---|
| Flight time | 1h 56m |
| Altitude | 39000 |
| Route | EBAKE WISMO POSTS PADDE SVM AXXIS OLAMO TEXID RAKAM Q913 CABCI |
| Aircraft | A319/M-SDE3FGHIRWY/LB1 |
Departure
| Time | 2026-04-30 18:42 |
|---|---|
| Airport | Chicago O'Hare International Airport (KORD) |
Arrival
| Time | 2026-04-30 20:38 |
|---|---|
| Airport | Bangor International Airport (KBGR) |
| Time | Latitude | Longitude | Altitude | Speed | Heading |
|---|---|---|---|---|---|
| 2026-04-30 18:14 | 41.97459 | -87.89874 | 658 ft | 0 kts | 37° |
| 2026-04-30 18:28 | 41.97435 | -87.89897 | 658 ft | 2 kts | 14° |
| 2026-04-30 18:28 | 41.97420 | -87.89899 | 658 ft | 2 kts | 348° |
| 2026-04-30 18:28 | 41.97395 | -87.89877 | 658 ft | 2 kts | 323° |
| 2026-04-30 18:29 | 41.97383 | -87.89865 | 658 ft | 2 kts | 322° |
| 2026-04-30 18:29 | 41.97369 | -87.89851 | 658 ft | 0 kts | 324° |
| 2026-04-30 18:32 | 41.97374 | -87.89856 | 658 ft | 1 kts | 322° |
| 2026-04-30 18:32 | 41.97384 | -87.89875 | 658 ft | 2 kts | 281° |
| 2026-04-30 18:32 | 41.97354 | -87.89872 | 658 ft | 5 kts | 144° |
| 2026-04-30 18:33 | 41.97316 | -87.89835 | 658 ft | 7 kts | 143° |
| 2026-04-30 18:33 | 41.97240 | -87.89806 | 658 ft | 5 kts | 228° |
| 2026-04-30 18:33 | 41.97219 | -87.89861 | 658 ft | 9 kts | 250° |
| 2026-04-30 18:34 | 41.97205 | -87.89961 | 660 ft | 10 kts | 266° |
| 2026-04-30 18:34 | 41.97194 | -87.90123 | 661 ft | 6 kts | 226° |
| 2026-04-30 18:34 | 41.97155 | -87.90141 | 661 ft | 5 kts | 206° |
| 2026-04-30 18:35 | 41.97137 | -87.90183 | 662 ft | 5 kts | 263° |
| 2026-04-30 18:35 | 41.97136 | -87.90247 | 663 ft | 11 kts | 269° |
| 2026-04-30 18:35 | 41.97138 | -87.90391 | 665 ft | 16 kts | 273° |
| 2026-04-30 18:36 | 41.97153 | -87.90694 | 668 ft | 15 kts | 274° |
| 2026-04-30 18:36 | 41.97159 | -87.90840 | 668 ft | 16 kts | 269° |
| 2026-04-30 18:36 | 41.97158 | -87.91153 | 668 ft | 17 kts | 269° |
| 2026-04-30 18:37 | 41.97156 | -87.91318 | 668 ft | 17 kts | 270° |
| 2026-04-30 18:37 | 41.97156 | -87.91487 | 668 ft | 18 kts | 270° |
| 2026-04-30 18:37 | 41.97155 | -87.91658 | 668 ft | 18 kts | 269° |
| 2026-04-30 18:37 | 41.97155 | -87.91834 | 668 ft | 19 kts | 270° |
| 2026-04-30 18:38 | 41.97155 | -87.91999 | 668 ft | 12 kts | 269° |
| 2026-04-30 18:38 | 41.97139 | -87.92070 | 670 ft | 6 kts | 225° |
| 2026-04-30 18:38 | 41.97097 | -87.92088 | 671 ft | 6 kts | 179° |
| 2026-04-30 18:38 | 41.97035 | -87.92087 | 671 ft | 10 kts | 180° |
| 2026-04-30 18:39 | 41.97006 | -87.92087 | 671 ft | 0 kts | 180° |
| 2026-04-30 18:40 | 41.96994 | -87.92087 | 671 ft | 4 kts | 179° |
| 2026-04-30 18:40 | 41.96946 | -87.92086 | 671 ft | 7 kts | 177° |
| 2026-04-30 18:40 | 41.96904 | -87.92052 | 671 ft | 7 kts | 114° |
| 2026-04-30 18:41 | 41.96901 | -87.91977 | 671 ft | 11 kts | 90° |
| 2026-04-30 18:41 | 41.96902 | -87.91602 | 668 ft | 79 kts | 90° |
| 2026-04-30 18:41 | 41.96904 | -87.90531 | 669 ft | 145 kts | 89° |
| 2026-04-30 18:41 | 41.96917 | -87.89100 | 1186 ft | 157 kts | 88° |
| 2026-04-30 18:42 | 41.96930 | -87.87635 | 1872 ft | 164 kts | 89° |
| 2026-04-30 18:42 | 41.96932 | -87.84465 | 3144 ft | 180 kts | 89° |
| 2026-04-30 18:42 | 41.97104 | -87.82775 | 3750 ft | 188 kts | 67° |
| 2026-04-30 18:45 | 42.05795 | -87.61930 | 9342 ft | 305 kts | 57° |
| 2026-04-30 18:45 | 42.06817 | -87.59386 | 9915 ft | 310 kts | 57° |
| 2026-04-30 18:45 | 42.07843 | -87.56831 | 10485 ft | 313 kts | 56° |
| 2026-04-30 18:46 | 42.08898 | -87.54210 | 11061 ft | 327 kts | 56° |
| 2026-04-30 18:46 | 42.10001 | -87.51472 | 11667 ft | 341 kts | 56° |
| 2026-04-30 18:46 | 42.11153 | -87.48601 | 12266 ft | 354 kts | 57° |
| 2026-04-30 18:46 | 42.12347 | -87.45615 | 12857 ft | 366 kts | 57° |
| 2026-04-30 18:47 | 42.13570 | -87.42552 | 13429 ft | 376 kts | 57° |
| 2026-04-30 18:47 | 42.14815 | -87.39426 | 14009 ft | 386 kts | 56° |
| 2026-04-30 18:47 | 42.16081 | -87.36244 | 14567 ft | 395 kts | 56° |
| 2026-04-30 18:47 | 42.17397 | -87.32937 | 15146 ft | 403 kts | 57° |
| 2026-04-30 18:48 | 42.18736 | -87.29568 | 15709 ft | 409 kts | 57° |
| 2026-04-30 18:48 | 42.20069 | -87.26206 | 16258 ft | 416 kts | 57° |
| 2026-04-30 18:48 | 42.21440 | -87.22743 | 16817 ft | 421 kts | 57° |
| 2026-04-30 18:48 | 42.22825 | -87.19246 | 17417 ft | 426 kts | 57° |
| 2026-04-30 18:49 | 42.24224 | -87.15707 | 17930 ft | 431 kts | 57° |
| 2026-04-30 18:49 | 42.25641 | -87.12121 | 18438 ft | 436 kts | 57° |
| 2026-04-30 18:49 | 42.26974 | -87.08420 | 18955 ft | 445 kts | 64° |
| 2026-04-30 18:49 | 42.27875 | -87.04440 | 19463 ft | 454 kts | 74° |
| 2026-04-30 18:50 | 42.28295 | -87.00163 | 19993 ft | 460 kts | 83° |
| 2026-04-30 18:50 | 42.28479 | -86.95839 | 20499 ft | 464 kts | 85° |
| 2026-04-30 18:50 | 42.28616 | -86.91491 | 20988 ft | 467 kts | 85° |
| 2026-04-30 18:50 | 42.28755 | -86.87165 | 21506 ft | 469 kts | 85° |
| 2026-04-30 18:51 | 42.28905 | -86.82726 | 22021 ft | 471 kts | 84° |
| 2026-04-30 18:51 | 42.29066 | -86.78327 | 22473 ft | 474 kts | 84° |
| 2026-04-30 18:51 | 42.29234 | -86.73870 | 22914 ft | 478 kts | 84° |
| 2026-04-30 18:51 | 42.29402 | -86.69438 | 23331 ft | 481 kts | 84° |
| 2026-04-30 18:52 | 42.29577 | -86.64899 | 23776 ft | 484 kts | 84° |
| 2026-04-30 18:52 | 42.29749 | -86.60398 | 24211 ft | 486 kts | 84° |
| 2026-04-30 18:52 | 42.29919 | -86.55860 | 24642 ft | 489 kts | 84° |
| 2026-04-30 18:52 | 42.30091 | -86.51238 | 25070 ft | 491 kts | 84° |
| 2026-04-30 18:53 | 42.30259 | -86.46657 | 25498 ft | 493 kts | 84° |
| 2026-04-30 18:53 | 42.30429 | -86.42020 | 25927 ft | 495 kts | 84° |
| 2026-04-30 18:53 | 42.30595 | -86.37404 | 26354 ft | 496 kts | 84° |
| 2026-04-30 18:53 | 42.30759 | -86.32783 | 26775 ft | 498 kts | 84° |
| 2026-04-30 18:54 | 42.30924 | -86.28127 | 27201 ft | 499 kts | 85° |
| 2026-04-30 18:54 | 42.31085 | -86.23480 | 27623 ft | 500 kts | 85° |
| 2026-04-30 18:54 | 42.31246 | -86.18759 | 28049 ft | 500 kts | 85° |
| 2026-04-30 18:54 | 42.31405 | -86.14066 | 28481 ft | 501 kts | 85° |
| 2026-04-30 18:55 | 42.31537 | -86.09446 | 28898 ft | 502 kts | 86° |
| 2026-04-30 18:55 | 42.31483 | -86.00008 | 29761 ft | 503 kts | 89° |
| 2026-04-30 18:55 | 42.31421 | -85.95308 | 30184 ft | 503 kts | 89° |
| 2026-04-30 18:56 | 42.31294 | -85.85861 | 30993 ft | 503 kts | 89° |
| 2026-04-30 18:56 | 42.31233 | -85.81168 | 31338 ft | 502 kts | 89° |
| 2026-04-30 18:56 | 42.31172 | -85.76494 | 31670 ft | 502 kts | 89° |
| 2026-04-30 18:57 | 42.31046 | -85.67093 | 32328 ft | 500 kts | 89° |
| 2026-04-30 18:57 | 42.30981 | -85.62430 | 32658 ft | 499 kts | 89° |
| 2026-04-30 18:57 | 42.30912 | -85.57759 | 32976 ft | 498 kts | 89° |
| 2026-04-30 18:58 | 42.30773 | -85.48408 | 33509 ft | 500 kts | 89° |
| 2026-04-30 18:58 | 42.30700 | -85.43734 | 33776 ft | 501 kts | 89° |
| 2026-04-30 18:58 | 42.30626 | -85.39066 | 34029 ft | 502 kts | 89° |
| 2026-04-30 18:59 | 42.30471 | -85.29669 | 34495 ft | 504 kts | 90° |
| 2026-04-30 19:00 | 42.30220 | -85.15505 | 35191 ft | 503 kts | 90° |
| 2026-04-30 19:00 | 42.30135 | -85.10828 | 35422 ft | 502 kts | 90° |
| 2026-04-30 19:00 | 42.29953 | -85.01408 | 35886 ft | 500 kts | 90° |
| 2026-04-30 19:01 | 42.29735 | -84.92119 | 36339 ft | 499 kts | 91° |
| 2026-04-30 19:01 | 42.29619 | -84.87426 | 36569 ft | 498 kts | 91° |
| 2026-04-30 19:02 | 42.29385 | -84.78111 | 37002 ft | 496 kts | 91° |
| 2026-04-30 19:02 | 42.29149 | -84.68829 | 37392 ft | 496 kts | 91° |
| 2026-04-30 19:03 | 42.28907 | -84.59619 | 37721 ft | 496 kts | 91° |
| 2026-04-30 19:03 | 42.28796 | -84.50313 | 38069 ft | 495 kts | 86° |
| 2026-04-30 19:04 | 42.29436 | -84.41142 | 38360 ft | 495 kts | 78° |
| 2026-04-30 19:04 | 42.30714 | -84.32029 | 38606 ft | 496 kts | 77° |
| 2026-04-30 19:05 | 42.32050 | -84.22891 | 38855 ft | 496 kts | 77° |
| 2026-04-30 19:05 | 42.33348 | -84.13787 | 38973 ft | 500 kts | 77° |
| 2026-04-30 19:06 | 42.34650 | -84.04513 | 38979 ft | 505 kts | 77° |
| 2026-04-30 19:06 | 42.36596 | -83.90522 | 38972 ft | 509 kts | 78° |
| 2026-04-30 19:07 | 42.38541 | -83.76402 | 38980 ft | 509 kts | 78° |
| 2026-04-30 19:08 | 42.41399 | -83.57754 | 38986 ft | 508 kts | 71° |
| 2026-04-30 19:09 | 42.44878 | -83.44321 | 38985 ft | 506 kts | 67° |
| 2026-04-30 19:09 | 42.47306 | -83.35394 | 38984 ft | 507 kts | 67° |
| 2026-04-30 19:10 | 42.52105 | -83.17491 | 38983 ft | 507 kts | 68° |
| 2026-04-30 19:11 | 42.55666 | -83.04085 | 38973 ft | 506 kts | 68° |
| 2026-04-30 19:12 | 42.58031 | -82.95135 | 38976 ft | 506 kts | 69° |
| 2026-04-30 19:12 | 42.60400 | -82.86141 | 38975 ft | 506 kts | 69° |
| 2026-04-30 19:13 | 42.65099 | -82.68192 | 38974 ft | 507 kts | 69° |
| 2026-04-30 19:14 | 42.67423 | -82.59265 | 38972 ft | 506 kts | 69° |
| 2026-04-30 19:14 | 42.69759 | -82.50261 | 38966 ft | 506 kts | 69° |
| 2026-04-30 19:15 | 42.72085 | -82.41262 | 38970 ft | 505 kts | 69° |
| 2026-04-30 19:15 | 42.75550 | -82.27801 | 38966 ft | 505 kts | 70° |
| 2026-04-30 19:16 | 42.77846 | -82.18825 | 38965 ft | 505 kts | 70° |
| 2026-04-30 19:17 | 42.81291 | -82.05299 | 38960 ft | 504 kts | 70° |
| 2026-04-30 19:17 | 42.84519 | -81.91736 | 38951 ft | 504 kts | 72° |
| 2026-04-30 19:18 | 42.87480 | -81.78022 | 38954 ft | 504 kts | 72° |
| 2026-04-30 19:19 | 42.89437 | -81.68930 | 38950 ft | 504 kts | 73° |
| 2026-04-30 19:19 | 42.92384 | -81.55198 | 38945 ft | 504 kts | 73° |
| 2026-04-30 19:20 | 42.94333 | -81.46070 | 38956 ft | 504 kts | 73° |
| 2026-04-30 19:21 | 42.97245 | -81.32360 | 38959 ft | 503 kts | 73° |
| 2026-04-30 19:22 | 43.01096 | -81.14088 | 38959 ft | 503 kts | 74° |
| 2026-04-30 19:23 | 43.06820 | -80.86624 | 38939 ft | 502 kts | 74° |
| 2026-04-30 19:24 | 43.09649 | -80.72922 | 38933 ft | 503 kts | 74° |
| 2026-04-30 19:25 | 43.14345 | -80.49960 | 38909 ft | 502 kts | 74° |
| 2026-04-30 19:26 | 43.18051 | -80.31649 | 38911 ft | 502 kts | 75° |
| 2026-04-30 19:27 | 43.20822 | -80.17848 | 38914 ft | 502 kts | 75° |
| 2026-04-30 19:28 | 43.23569 | -80.04082 | 38915 ft | 501 kts | 75° |
| 2026-04-30 19:29 | 43.27660 | -79.85839 | 38917 ft | 502 kts | 67° |
| 2026-04-30 19:30 | 43.33603 | -79.68559 | 38917 ft | 503 kts | 64° |
| 2026-04-30 19:31 | 43.39615 | -79.51309 | 38908 ft | 502 kts | 64° |
| 2026-04-30 19:31 | 43.44082 | -79.38375 | 38908 ft | 502 kts | 64° |
| 2026-04-30 19:32 | 43.47074 | -79.29672 | 38913 ft | 503 kts | 65° |
| 2026-04-30 19:32 | 43.50045 | -79.20998 | 38904 ft | 503 kts | 65° |
| 2026-04-30 19:33 | 43.53006 | -79.12330 | 38918 ft | 503 kts | 65° |
| 2026-04-30 19:33 | 43.55953 | -79.03675 | 38904 ft | 503 kts | 65° |
| 2026-04-30 19:34 | 43.58573 | -78.94759 | 38908 ft | 502 kts | 72° |
| 2026-04-30 19:35 | 43.61342 | -78.80872 | 38903 ft | 501 kts | 76° |
| 2026-04-30 19:35 | 43.63044 | -78.71635 | 38903 ft | 502 kts | 77° |
| 2026-04-30 19:36 | 43.64775 | -78.62278 | 38896 ft | 502 kts | 76° |
| 2026-04-30 19:36 | 43.67350 | -78.48344 | 38884 ft | 501 kts | 76° |
| 2026-04-30 19:37 | 43.69056 | -78.39070 | 38883 ft | 501 kts | 76° |
| 2026-04-30 19:37 | 43.70756 | -78.29784 | 38877 ft | 501 kts | 77° |
| 2026-04-30 19:38 | 43.72450 | -78.20485 | 38876 ft | 501 kts | 77° |
| 2026-04-30 19:38 | 43.74143 | -78.11144 | 38872 ft | 501 kts | 77° |
| 2026-04-30 19:39 | 43.75817 | -78.01865 | 38869 ft | 501 kts | 77° |
| 2026-04-30 19:39 | 43.77491 | -77.92534 | 38865 ft | 501 kts | 77° |
| 2026-04-30 19:40 | 43.79160 | -77.83182 | 38870 ft | 501 kts | 77° |
| 2026-04-30 19:40 | 43.80812 | -77.73873 | 38865 ft | 500 kts | 77° |
| 2026-04-30 19:41 | 43.82455 | -77.64578 | 38859 ft | 500 kts | 77° |
| 2026-04-30 19:41 | 43.84095 | -77.55248 | 38852 ft | 500 kts | 77° |
| 2026-04-30 19:42 | 43.85721 | -77.45947 | 38858 ft | 499 kts | 77° |
| 2026-04-30 19:42 | 43.87339 | -77.36651 | 38856 ft | 499 kts | 77° |
| 2026-04-30 19:43 | 43.88947 | -77.27364 | 38862 ft | 498 kts | 78° |
| 2026-04-30 19:44 | 43.91352 | -77.13367 | 38853 ft | 498 kts | 78° |
| 2026-04-30 19:44 | 43.92943 | -77.04047 | 38844 ft | 498 kts | 78° |
| 2026-04-30 19:45 | 43.94517 | -76.94786 | 38847 ft | 498 kts | 78° |
| 2026-04-30 19:45 | 43.96100 | -76.85425 | 38857 ft | 498 kts | 78° |
| 2026-04-30 19:46 | 43.97666 | -76.76114 | 38849 ft | 498 kts | 78° |
| 2026-04-30 19:46 | 43.99220 | -76.66815 | 38850 ft | 498 kts | 78° |
| 2026-04-30 19:47 | 44.00776 | -76.57457 | 38851 ft | 498 kts | 78° |
| 2026-04-30 19:47 | 44.02324 | -76.48136 | 38858 ft | 497 kts | 77° |
| 2026-04-30 19:48 | 44.04071 | -76.38850 | 38857 ft | 497 kts | 76° |
| 2026-04-30 19:48 | 44.05852 | -76.29618 | 38850 ft | 497 kts | 77° |
| 2026-04-30 19:49 | 44.07616 | -76.20345 | 38852 ft | 497 kts | 77° |
| 2026-04-30 19:49 | 44.10226 | -76.06449 | 38855 ft | 497 kts | 77° |
| 2026-04-30 19:50 | 44.11950 | -75.97199 | 38862 ft | 497 kts | 77° |
| 2026-04-30 19:50 | 44.13663 | -75.87952 | 38860 ft | 497 kts | 77° |
| 2026-04-30 19:51 | 44.15377 | -75.78652 | 38846 ft | 496 kts | 77° |
| 2026-04-30 19:51 | 44.17073 | -75.69407 | 38866 ft | 496 kts | 77° |
| 2026-04-30 19:52 | 44.18767 | -75.60133 | 38851 ft | 495 kts | 77° |
| 2026-04-30 19:52 | 44.20447 | -75.50893 | 38850 ft | 495 kts | 77° |
| 2026-04-30 19:53 | 44.22130 | -75.41589 | 38853 ft | 495 kts | 77° |
| 2026-04-30 19:53 | 44.23794 | -75.32337 | 38845 ft | 495 kts | 78° |
| 2026-04-30 19:54 | 44.25455 | -75.23057 | 38846 ft | 494 kts | 78° |
| 2026-04-30 19:54 | 44.27095 | -75.13844 | 38828 ft | 492 kts | 78° |
| 2026-04-30 19:55 | 44.28729 | -75.04612 | 38821 ft | 492 kts | 78° |
| 2026-04-30 19:55 | 44.30353 | -74.95395 | 38817 ft | 492 kts | 78° |
| 2026-04-30 19:56 | 44.31983 | -74.86101 | 38806 ft | 491 kts | 78° |
| 2026-04-30 19:56 | 44.33591 | -74.76887 | 38802 ft | 491 kts | 78° |
| 2026-04-30 19:57 | 44.35192 | -74.67663 | 38801 ft | 491 kts | 78° |
| 2026-04-30 19:57 | 44.36786 | -74.58426 | 38801 ft | 492 kts | 78° |
| 2026-04-30 19:58 | 44.38369 | -74.49210 | 38795 ft | 492 kts | 78° |
| 2026-04-30 19:58 | 44.39957 | -74.39916 | 38797 ft | 492 kts | 78° |
| 2026-04-30 19:59 | 44.41530 | -74.30656 | 38796 ft | 491 kts | 79° |
| 2026-04-30 20:00 | 44.43867 | -74.16815 | 38818 ft | 490 kts | 79° |
| 2026-04-30 20:00 | 44.45421 | -74.07552 | 38805 ft | 490 kts | 79° |
| 2026-04-30 20:01 | 44.47733 | -73.93677 | 38789 ft | 490 kts | 79° |
| 2026-04-30 20:01 | 44.49263 | -73.84419 | 38793 ft | 490 kts | 79° |
| 2026-04-30 20:02 | 44.51548 | -73.70526 | 38792 ft | 491 kts | 79° |
| 2026-04-30 20:03 | 44.53820 | -73.56575 | 38801 ft | 491 kts | 79° |
| 2026-04-30 20:03 | 44.55328 | -73.47262 | 38802 ft | 491 kts | 79° |
| 2026-04-30 20:04 | 44.56828 | -73.37948 | 38805 ft | 492 kts | 79° |
| 2026-04-30 20:05 | 44.59055 | -73.24026 | 38800 ft | 491 kts | 80° |
| 2026-04-30 20:05 | 44.61272 | -73.10035 | 38807 ft | 490 kts | 80° |
| 2026-04-30 20:06 | 44.62732 | -73.00754 | 38808 ft | 491 kts | 80° |
| 2026-04-30 20:06 | 44.64189 | -72.91440 | 38805 ft | 490 kts | 80° |
| 2026-04-30 20:07 | 44.65648 | -72.82070 | 38793 ft | 491 kts | 80° |
| 2026-04-30 20:08 | 44.67814 | -72.68053 | 38786 ft | 491 kts | 80° |
| 2026-04-30 20:08 | 44.69245 | -72.58738 | 38789 ft | 491 kts | 80° |
| 2026-04-30 20:09 | 44.70667 | -72.49398 | 38779 ft | 490 kts | 80° |
| 2026-04-30 20:09 | 44.72789 | -72.35381 | 38778 ft | 490 kts | 80° |
| 2026-04-30 20:10 | 44.74184 | -72.26108 | 38493 ft | 486 kts | 81° |
| 2026-04-30 20:10 | 44.74877 | -72.21481 | 38143 ft | 484 kts | 81° |
| 2026-04-30 20:10 | 44.75568 | -72.16856 | 37795 ft | 482 kts | 81° |
| 2026-04-30 20:11 | 44.76926 | -72.07722 | 37093 ft | 479 kts | 81° |
| 2026-04-30 20:11 | 44.77600 | -72.03160 | 36749 ft | 478 kts | 82° |
| 2026-04-30 20:11 | 44.78267 | -71.98633 | 36397 ft | 476 kts | 82° |
| 2026-04-30 20:12 | 44.79597 | -71.89575 | 35640 ft | 474 kts | 82° |
| 2026-04-30 20:12 | 44.80263 | -71.85017 | 35265 ft | 474 kts | 82° |
| 2026-04-30 20:12 | 44.80919 | -71.80505 | 34879 ft | 473 kts | 82° |
| 2026-04-30 20:13 | 44.81573 | -71.75997 | 34506 ft | 472 kts | 82° |
| 2026-04-30 20:13 | 44.82156 | -71.71504 | 34120 ft | 469 kts | 85° |
| 2026-04-30 20:13 | 44.82556 | -71.66985 | 33720 ft | 467 kts | 88° |
| 2026-04-30 20:13 | 44.82883 | -71.62434 | 33310 ft | 466 kts | 88° |
| 2026-04-30 20:14 | 44.83196 | -71.57902 | 32867 ft | 466 kts | 88° |
| 2026-04-30 20:14 | 44.83503 | -71.53428 | 32413 ft | 465 kts | 89° |
| 2026-04-30 20:14 | 44.83812 | -71.48894 | 31946 ft | 464 kts | 89° |
| 2026-04-30 20:14 | 44.84119 | -71.44395 | 31485 ft | 464 kts | 89° |
| 2026-04-30 20:15 | 44.84426 | -71.39885 | 31013 ft | 463 kts | 89° |
| 2026-04-30 20:15 | 44.84729 | -71.35399 | 30537 ft | 463 kts | 89° |
| 2026-04-30 20:15 | 44.85030 | -71.30913 | 30036 ft | 462 kts | 90° |
| 2026-04-30 20:15 | 44.85332 | -71.26403 | 29516 ft | 462 kts | 90° |
| 2026-04-30 20:16 | 44.85631 | -71.21888 | 29000 ft | 465 kts | 89° |
| 2026-04-30 20:16 | 44.85929 | -71.17376 | 28491 ft | 466 kts | 89° |
| 2026-04-30 20:16 | 44.86228 | -71.12821 | 27980 ft | 467 kts | 89° |
| 2026-04-30 20:16 | 44.86523 | -71.08312 | 27471 ft | 468 kts | 89° |
| 2026-04-30 20:17 | 44.86822 | -71.03732 | 26960 ft | 469 kts | 89° |
| 2026-04-30 20:17 | 44.87115 | -70.99206 | 26451 ft | 470 kts | 89° |
| 2026-04-30 20:17 | 44.87410 | -70.94612 | 25933 ft | 472 kts | 89° |
| 2026-04-30 20:17 | 44.87706 | -70.89999 | 25424 ft | 473 kts | 89° |
| 2026-04-30 20:18 | 44.87995 | -70.85477 | 24921 ft | 463 kts | 89° |
| 2026-04-30 20:18 | 44.88279 | -70.81036 | 24424 ft | 451 kts | 89° |
| 2026-04-30 20:18 | 44.88554 | -70.76683 | 23950 ft | 440 kts | 89° |
| 2026-04-30 20:18 | 44.88823 | -70.72426 | 23755 ft | 427 kts | 89° |
| 2026-04-30 20:19 | 44.89077 | -70.68312 | 23752 ft | 426 kts | 89° |
| 2026-04-30 20:19 | 44.89246 | -70.65519 | 23754 ft | 427 kts | 89° |
| 2026-04-30 20:19 | 44.89582 | -70.60006 | 23757 ft | 423 kts | 89° |
| 2026-04-30 20:19 | 44.89832 | -70.55939 | 23756 ft | 405 kts | 89° |
| 2026-04-30 20:20 | 44.90070 | -70.52043 | 23761 ft | 401 kts | 89° |
| 2026-04-30 20:20 | 44.90302 | -70.48155 | 23761 ft | 400 kts | 89° |
| 2026-04-30 20:20 | 44.90535 | -70.44214 | 23763 ft | 399 kts | 89° |
| 2026-04-30 20:20 | 44.90763 | -70.40359 | 23549 ft | 400 kts | 89° |
| 2026-04-30 20:21 | 44.90993 | -70.36482 | 23064 ft | 396 kts | 90° |
| 2026-04-30 20:21 | 44.91221 | -70.32648 | 22556 ft | 387 kts | 90° |
| 2026-04-30 20:21 | 44.91441 | -70.28927 | 22006 ft | 379 kts | 90° |
| 2026-04-30 20:21 | 44.91652 | -70.25306 | 21465 ft | 372 kts | 90° |
| 2026-04-30 20:22 | 44.91861 | -70.21703 | 20920 ft | 366 kts | 91° |
| 2026-04-30 20:22 | 44.92066 | -70.18137 | 20368 ft | 361 kts | 91° |
| 2026-04-30 20:22 | 44.92262 | -70.14696 | 19829 ft | 356 kts | 91° |
| 2026-04-30 20:22 | 44.92457 | -70.11249 | 19281 ft | 352 kts | 91° |
| 2026-04-30 20:23 | 44.92652 | -70.07806 | 18731 ft | 348 kts | 91° |
| 2026-04-30 20:23 | 44.92839 | -70.04486 | 18194 ft | 344 kts | 91° |
| 2026-04-30 20:23 | 44.93027 | -70.01126 | 17652 ft | 341 kts | 91° |
| 2026-04-30 20:23 | 44.93211 | -69.97829 | 17112 ft | 338 kts | 91° |
| 2026-04-30 20:24 | 44.93391 | -69.94562 | 16567 ft | 335 kts | 91° |
| 2026-04-30 20:24 | 44.93573 | -69.91295 | 16018 ft | 332 kts | 91° |
| 2026-04-30 20:24 | 44.93750 | -69.88077 | 15473 ft | 329 kts | 91° |
| 2026-04-30 20:24 | 44.93924 | -69.84879 | 14918 ft | 327 kts | 91° |
| 2026-04-30 20:25 | 44.94264 | -69.78590 | 13828 ft | 321 kts | 91° |
| 2026-04-30 20:25 | 44.94431 | -69.75455 | 13283 ft | 319 kts | 91° |
| 2026-04-30 20:26 | 44.94758 | -69.69300 | 12193 ft | 313 kts | 91° |
| 2026-04-30 20:26 | 44.95077 | -69.63256 | 11102 ft | 308 kts | 91° |
| 2026-04-30 20:26 | 44.95233 | -69.60270 | 10681 ft | 305 kts | 91° |
| 2026-04-30 20:27 | 44.95541 | -69.54354 | 9926 ft | 300 kts | 91° |
| 2026-04-30 20:27 | 44.95841 | -69.48598 | 9128 ft | 288 kts | 91° |
| 2026-04-30 20:28 | 44.96124 | -69.43150 | 8269 ft | 272 kts | 92° |
| 2026-04-30 20:28 | 44.96386 | -69.38019 | 7425 ft | 256 kts | 92° |
| 2026-04-30 20:29 | 44.96630 | -69.33074 | 6660 ft | 248 kts | 94° |
| 2026-04-30 20:30 | 44.96971 | -69.26093 | 5653 ft | 229 kts | 92° |
| 2026-04-30 20:30 | 44.97287 | -69.19698 | 4854 ft | 203 kts | 92° |
| 2026-04-30 20:31 | 44.97558 | -69.13950 | 3885 ft | 194 kts | 92° |
| 2026-04-30 20:32 | 44.97704 | -69.08408 | 3107 ft | 182 kts | 108° |
| 2026-04-30 20:32 | 44.96393 | -69.05499 | 2978 ft | 177 kts | 134° |
| 2026-04-30 20:33 | 44.95558 | -69.04228 | 2977 ft | 177 kts | 134° |
| 2026-04-30 20:33 | 44.93862 | -69.01720 | 2973 ft | 177 kts | 135° |
| 2026-04-30 20:33 | 44.93011 | -69.00484 | 2965 ft | 168 kts | 136° |
| 2026-04-30 20:34 | 44.91500 | -68.98304 | 2932 ft | 148 kts | 136° |
| 2026-04-30 20:34 | 44.90073 | -68.96259 | 2548 ft | 147 kts | 136° |
| 2026-04-30 20:35 | 44.89353 | -68.95224 | 2347 ft | 147 kts | 135° |
| 2026-04-30 20:35 | 44.88639 | -68.94197 | 2146 ft | 147 kts | 135° |
| 2026-04-30 20:35 | 44.87231 | -68.92173 | 1737 ft | 139 kts | 133° |
| 2026-04-30 20:36 | 44.86580 | -68.91235 | 1555 ft | 130 kts | 133° |
| 2026-04-30 20:36 | 44.85947 | -68.90323 | 1385 ft | 131 kts | 133° |
| 2026-04-30 20:36 | 44.84748 | -68.88594 | 1039 ft | 119 kts | 133° |
| 2026-04-30 20:37 | 44.84167 | -68.87755 | 885 ft | 120 kts | 133° |
| 2026-04-30 20:37 | 44.83587 | -68.86917 | 728 ft | 121 kts | 134° |
| 2026-04-30 20:37 | 44.82995 | -68.86062 | 557 ft | 123 kts | 134° |
| 2026-04-30 20:37 | 44.82390 | -68.85188 | 386 ft | 124 kts | 134° |
| 2026-04-30 20:38 | 44.81782 | -68.84312 | 216 ft | 126 kts | 134° |
| 2026-04-30 20:38 | 44.81227 | -68.83511 | 188 ft | 94 kts | 134° |
| 2026-04-30 20:38 | 44.80891 | -68.83025 | 174 ft | 45 kts | 134° |
| 2026-04-30 20:39 | 44.80729 | -68.82792 | 169 ft | 14 kts | 134° |
| 2026-04-30 20:39 | 44.80651 | -68.82678 | 169 ft | 16 kts | 134° |
| 2026-04-30 20:39 | 44.80558 | -68.82543 | 166 ft | 21 kts | 134° |
| 2026-04-30 20:40 | 44.80347 | -68.82238 | 160 ft | 13 kts | 134° |
| 2026-04-30 20:40 | 44.80318 | -68.82160 | 159 ft | 8 kts | 90° |
| 2026-04-30 20:40 | 44.80344 | -68.82087 | 157 ft | 10 kts | 46° |
| 2026-04-30 20:41 | 44.80477 | -68.81908 | 154 ft | 15 kts | 44° |
| 2026-04-30 20:41 | 44.80554 | -68.81805 | 153 ft | 13 kts | 43° |
| 2026-04-30 20:41 | 44.80613 | -68.81742 | 154 ft | 7 kts | 8° |
| 2026-04-30 20:41 | 44.80673 | -68.81743 | 154 ft | 9 kts | 356° |
| 2026-04-30 20:42 | 44.80718 | -68.81740 | 154 ft | 3 kts | 34° |
| 2026-04-30 20:42 | 44.80743 | -68.81705 | 153 ft | 4 kts | 44° |
| 2026-04-30 20:42 | 44.80752 | -68.81693 | 153 ft | 0 kts | 44° |